Time;durP1;ratioP1;P1;durP2;ratioP2;P2;SDS_P1;SDS_P2;PMS_P1;PMS_P2;Temp;Humidity;BMP_temperature;BMP_pressure;BME280_temperature;BME280_humidity;BME280_pressure;Samples;Min_cycle;Max_cycle;Signal;HPM_P1;HPM_P2
2024/04/09 00:04:07;;;;;;;7.43;3.50;;;21.90;26.60;;;;;;11235870;26;20692;-71
2024/04/09 00:09:20;;;;;;;7.87;3.50;;;21.80;26.50;;;;;;11258218;26;20296;-70
2024/04/09 00:14:27;;;;;;;8.30;3.33;;;21.70;27.20;;;;;;11261034;26;20265;-71
2024/04/09 00:19:32;;;;;;;9.20;3.70;;;21.60;26.80;;;;;;11264688;26;20624;-71
2024/04/09 00:24:39;;;;;;;8.03;3.50;;;21.40;26.80;;;;;;11252211;26;20304;-71
2024/04/09 00:29:44;;;;;;;6.57;2.60;;;21.30;27.40;;;;;;11271678;26;20261;-71
2024/04/09 00:34:49;;;;;;;5.27;2.80;;;21.20;27.00;;;;;;11243803;26;20245;-71
2024/04/09 00:39:58;;;;;;;9.60;3.43;;;21.10;27.30;;;;;;11269970;26;20258;-71
2024/04/09 00:45:04;;;;;;;7.10;3.33;;;21.00;27.70;;;;;;11259903;26;20303;-71
2024/04/09 00:50:11;;;;;;;9.23;3.10;;;20.90;27.20;;;;;;11259263;26;20802;-71
2024/04/09 00:55:24;;;;;;;6.43;2.87;;;20.70;27.40;;;;;;11270662;26;20312;-70
2024/04/09 01:00:29;;;;;;;12.03;3.13;;;20.60;28.00;;;;;;11257062;26;20257;-71
2024/04/09 01:05:35;;;;;;;8.87;3.17;;;20.50;27.60;;;;;;11270178;26;20273;-71
2024/04/09 01:10:43;;;;;;;8.67;3.50;;;20.40;27.70;;;;;;11255025;26;20301;-71
2024/04/09 01:15:48;;;;;;;8.13;2.83;;;20.30;28.20;;;;;;11244641;26;20269;-71
2024/04/09 01:20:54;;;;;;;8.77;3.47;;;20.30;27.80;;;;;;11239817;26;20266;-71
2024/04/09 01:26:02;;;;;;;7.50;3.20;;;20.30;27.80;;;;;;11259382;26;20794;-71
2024/04/09 01:31:11;;;;;;;8.23;3.27;;;20.10;28.00;;;;;;11269218;26;20261;-70
2024/04/09 01:36:16;;;;;;;10.67;3.00;;;20.00;27.80;;;;;;11260681;26;20262;-71
2024/04/09 01:41:24;;;;;;;6.03;3.17;;;19.80;27.90;;;;;;11251513;26;20261;-71
2024/04/09 01:46:29;;;;;;;11.77;3.70;;;19.80;28.60;;;;;;11259133;26;20262;-71
2024/04/09 01:51:34;;;;;;;7.83;3.30;;;19.70;28.30;;;;;;11226290;26;20261;-71
2024/04/09 01:56:42;;;;;;;10.27;3.50;;;19.60;28.30;;;;;;11261760;26;20274;-71
2024/04/09 02:01:47;;;;;;;5.10;2.63;;;19.60;28.50;;;;;;11240584;26;20670;-71
2024/04/09 02:06:52;;;;;;;8.57;3.43;;;19.60;28.20;;;;;;11265121;26;20307;-71
2024/04/09 02:12:00;;;;;;;7.87;2.90;;;19.60;28.40;;;;;;11254921;26;20288;-71
2024/04/09 02:17:05;;;;;;;8.93;3.30;;;19.50;28.70;;;;;;11273271;26;20272;-70
2024/04/09 02:22:10;;;;;;;10.80;4.03;;;19.50;28.30;;;;;;11266913;26;20304;-71
2024/04/09 02:27:21;;;;;;;10.13;3.30;;;19.50;28.30;;;;;;11261142;26;20265;-71
2024/04/09 02:32:26;;;;;;;9.13;3.17;;;19.40;28.70;;;;;;11263545;26;20300;-71
2024/04/09 02:37:32;;;;;;;9.73;3.30;;;19.30;28.30;;;;;;11268559;26;20258;-71
2024/04/09 02:42:39;;;;;;;11.27;2.93;;;19.10;28.50;;;;;;11267187;26;20295;-70
2024/04/09 02:47:44;;;;;;;7.80;3.00;;;19.00;28.80;;;;;;11262254;26;20299;-71
2024/04/09 02:52:50;;;;;;;6.37;3.17;;;19.00;28.60;;;;;;11264678;26;20605;-70
2024/04/09 02:57:58;;;;;;;7.77;3.20;;;19.00;28.60;;;;;;11265979;26;20261;-71
2024/04/09 03:03:04;;;;;;;9.07;3.50;;;18.90;28.90;;;;;;11254909;26;21228;-70
2024/04/09 03:08:09;;;;;;;7.53;3.37;;;18.80;28.70;;;;;;11263709;26;20612;-70
2024/04/09 03:13:17;;;;;;;7.20;3.40;;;18.80;28.70;;;;;;11259000;26;20650;-70
2024/04/09 03:18:23;;;;;;;6.93;3.10;;;18.60;29.10;;;;;;11265904;26;20257;-71
2024/04/09 03:23:27;;;;;;;8.50;3.23;;;18.60;28.80;;;;;;11264037;26;20301;-71
2024/04/09 03:28:35;;;;;;;17.30;4.27;;;18.50;28.80;;;;;;11256625;26;20261;-71
2024/04/09 03:33:40;;;;;;;7.97;3.10;;;18.40;29.10;;;;;;11263299;26;20304;-71
2024/04/09 03:38:46;;;;;;;11.97;3.70;;;18.30;28.80;;;;;;11260254;26;20365;-71
2024/04/09 03:43:53;;;;;;;10.47;3.30;;;18.10;28.80;;;;;;11262261;26;20725;-71
2024/04/09 03:48:58;;;;;;;6.37;3.17;;;18.00;29.30;;;;;;11245317;26;20262;-71
2024/04/09 03:54:04;;;;;;;9.67;3.77;;;17.90;28.90;;;;;;11260450;26;20281;-70
2024/04/09 03:59:11;;;;;;;7.17;3.23;;;17.60;29.00;;;;;;11278076;26;20672;-70
2024/04/09 04:04:17;;;;;;;8.57;3.57;;;17.40;29.70;;;;;;11258387;26;20401;-70
2024/04/09 04:09:23;;;;;;;9.33;3.40;;;17.10;29.50;;;;;;11265705;26;20744;-70
2024/04/09 04:14:31;;;;;;;8.83;3.60;;;16.90;29.90;;;;;;11261512;26;20299;-71
2024/04/09 04:19:36;;;;;;;11.07;3.73;;;16.90;31.00;;;;;;11258520;26;20296;-71
2024/04/09 04:24:41;;;;;;;9.47;3.67;;;16.80;30.30;;;;;;11258050;26;20304;-71
2024/04/09 04:29:49;;;;;;;7.33;4.03;;;16.90;30.30;;;;;;11238482;26;20262;-71
2024/04/09 04:34:55;;;;;;;12.57;4.40;;;16.90;30.90;;;;;;11258442;26;20345;-72
2024/04/09 04:39:59;;;;;;;8.07;3.20;;;16.80;30.60;;;;;;11263981;26;20261;-71
2024/04/09 04:45:08;;;;;;;14.67;4.10;;;16.60;30.20;;;;;;11271160;26;20304;-70
2024/04/09 04:50:13;;;;;;;9.73;4.00;;;16.60;31.70;;;;;;11270648;26;20727;-70
2024/04/09 04:55:18;;;;;;;8.93;3.80;;;16.60;30.60;;;;;;11263291;26;20296;-70
2024/04/09 05:00:26;;;;;;;17.00;4.20;;;16.50;30.60;;;;;;11250491;26;20272;-70
2024/04/09 05:05:31;;;;;;;11.40;4.00;;;16.50;31.60;;;;;;11256859;26;20265;-71
2024/04/09 05:10:39;;;;;;;8.63;3.77;;;16.50;31.10;;;;;;11254255;26;20254;-71
2024/04/09 05:15:47;;;;;;;6.97;3.40;;;16.60;31.20;;;;;;11247839;26;20265;-71
2024/04/09 05:20:53;;;;;;;8.47;3.67;;;16.50;31.80;;;;;;11263854;26;20403;-71
2024/04/09 05:25:59;;;;;;;12.17;4.07;;;16.50;31.70;;;;;;11253875;26;20257;-70
2024/04/09 05:31:06;;;;;;;8.37;4.03;;;16.50;31.60;;;;;;11259044;26;20265;-70
2024/04/09 05:36:12;;;;;;;8.93;4.30;;;16.50;32.80;;;;;;11260714;26;20290;-70
2024/04/09 05:41:18;;;;;;;10.30;4.03;;;16.50;32.20;;;;;;11261948;26;20295;-71
2024/04/09 05:46:25;;;;;;;8.90;4.03;;;16.50;32.60;;;;;;11277108;26;20258;-70
2024/04/09 05:51:30;;;;;;;9.40;4.47;;;16.50;33.40;;;;;;11254473;26;20887;-71
2024/04/09 05:56:35;;;;;;;11.40;4.57;;;16.70;33.20;;;;;;11245798;26;20798;-70
2024/04/09 06:01:43;;;;;;;11.80;4.50;;;16.80;33.50;;;;;;11264714;26;20261;-72
2024/04/09 06:06:49;;;;;;;11.60;4.40;;;16.90;33.80;;;;;;11254277;26;21139;-71
2024/04/09 06:11:54;;;;;;;9.00;4.43;;;17.00;33.80;;;;;;11262019;26;20265;-72
2024/04/09 06:17:02;;;;;;;11.90;4.00;;;17.10;33.90;;;;;;11247445;26;20296;-72
2024/04/09 06:22:07;;;;;;;17.43;4.70;;;17.20;34.00;;;;;;11259029;26;20319;-72
2024/04/09 06:27:12;;;;;;;12.83;3.83;;;17.30;33.60;;;;;;11248424;26;20382;-71
2024/04/09 06:32:20;;;;;;;10.93;4.13;;;17.40;33.40;;;;;;11254129;26;20269;-70
2024/04/09 06:37:25;;;;;;;12.03;4.50;;;17.60;34.40;;;;;;11248701;26;20276;-71
2024/04/09 06:42:30;;;;;;;10.00;4.13;;;17.50;33.20;;;;;;11248044;26;20309;-72
2024/04/09 06:47:37;;;;;;;10.23;3.57;;;17.80;33.40;;;;;;11269212;26;20319;-72
2024/04/09 06:52:43;;;;;;;8.90;3.77;;;17.90;33.70;;;;;;11248697;26;20308;-69
2024/04/09 06:57:48;;;;;;;9.10;3.53;;;18.10;33.70;;;;;;11267276;26;20383;-71
2024/04/09 07:02:57;;;;;;;9.17;4.07;;;18.20;33.10;;;;;;11255588;26;20307;-71
2024/04/09 07:08:03;;;;;;;10.90;4.10;;;18.30;33.70;;;;;;11259599;26;20324;-72
2024/04/09 07:13:11;;;;;;;8.30;3.87;;;18.50;33.20;;;;;;11262058;26;20349;-71
2024/04/09 07:18:18;;;;;;;12.40;3.80;;;18.60;33.30;;;;;;11264869;26;20258;-71
2024/04/09 07:23:23;;;;;;;12.37;3.80;;;18.70;34.00;;;;;;11253268;26;20304;-71
2024/04/09 07:28:28;;;;;;;10.47;4.17;;;18.90;33.60;;;;;;11273696;26;20249;-71
2024/04/09 07:33:36;;;;;;;9.60;3.80;;;19.10;33.70;;;;;;11263914;26;20296;-71
2024/04/09 07:38:42;;;;;;;7.60;3.13;;;19.30;34.30;;;;;;11258931;26;20331;-71
2024/04/09 07:43:47;;;;;;;10.73;3.60;;;19.50;32.90;;;;;;11252993;26;20606;-71
2024/04/09 07:48:59;;;;;;;8.77;2.90;;;19.70;31.20;;;;;;11263762;26;20299;-71
2024/04/09 07:54:06;;;;;;;8.73;3.60;;;20.00;30.30;;;;;;11257794;26;20615;-70
2024/04/09 07:59:11;;;;;;;10.13;3.40;;;20.30;30.10;;;;;;11278791;26;20256;-71
2024/04/09 08:04:19;;;;;;;7.20;2.67;;;20.50;30.30;;;;;;11271729;26;20651;-71
2024/04/09 08:09:24;;;;;;;10.73;3.77;;;20.80;30.00;;;;;;11268090;26;20253;-71
2024/04/09 08:14:29;;;;;;;11.40;3.67;;;21.00;29.90;;;;;;11265580;26;20341;-71
2024/04/09 08:19:36;;;;;;;7.93;2.77;;;21.20;29.50;;;;;;11258323;26;20788;-71
2024/04/09 08:24:42;;;;;;;8.13;3.20;;;21.30;29.30;;;;;;11259413;26;20265;-72
2024/04/09 08:29:47;;;;;;;12.53;3.77;;;21.40;29.70;;;;;;11254037;26;20257;-71
2024/04/09 08:34:55;;;;;;;14.47;3.83;;;21.50;29.50;;;;;;11259043;26;20312;-72
2024/04/09 08:40:00;;;;;;;13.37;3.40;;;21.60;28.80;;;;;;11260811;26;20291;-71
2024/04/09 08:45:14;;;;;;;9.27;3.00;;;21.60;29.10;;;;;;11252958;26;20257;-71
2024/04/09 08:50:22;;;;;;;13.07;4.03;;;21.70;28.80;;;;;;11262094;26;20265;-71
2024/04/09 08:55:29;;;;;;;9.87;3.33;;;21.80;28.80;;;;;;11261214;26;20304;-71
2024/04/09 09:00:34;;;;;;;12.83;3.77;;;21.80;28.80;;;;;;11247731;26;20296;-71
2024/04/09 09:05:42;;;;;;;7.50;3.23;;;21.80;28.60;;;;;;11237220;26;20285;-71
2024/04/09 09:10:56;;;;;;;9.47;2.90;;;21.80;28.30;;;;;;11244479;26;20304;-71
2024/04/09 09:16:02;;;;;;;13.57;3.90;;;21.80;28.30;;;;;;11256056;26;20265;-72
2024/04/09 09:21:11;;;;;;;11.23;3.70;;;21.80;28.70;;;;;;11249279;26;20264;-71
2024/04/09 09:26:26;;;;;;;9.03;3.17;;;21.70;28.40;;;;;;11250129;26;20264;-71
2024/04/09 09:31:33;;;;;;;9.47;3.30;;;21.80;28.40;;;;;;11261673;26;20250;-71
2024/04/09 09:36:43;;;;;;;8.33;2.90;;;21.80;28.80;;;;;;11236772;26;20265;-71
2024/04/09 09:41:49;;;;;;;14.77;3.67;;;21.80;28.90;;;;;;11251997;26;20848;-71
2024/04/09 09:46:55;;;;;;;8.43;3.20;;;21.80;29.10;;;;;;11250060;26;20919;-71
2024/04/09 09:52:04;;;;;;;11.40;2.70;;;21.80;29.20;;;;;;11253575;26;20261;-72
2024/04/09 09:57:13;;;;;;;8.00;3.33;;;21.70;29.40;;;;;;11258525;26;20261;-70
2024/04/09 10:02:20;;;;;;;10.70;3.10;;;21.80;29.10;;;;;;11254192;26;21076;-71
2024/04/09 10:07:29;;;;;;;10.73;3.27;;;22.00;29.50;;;;;;11255128;26;20265;-71
2024/04/09 10:12:37;;;;;;;9.47;2.50;;;22.00;29.50;;;;;;11253026;26;20305;-71
2024/04/09 10:17:49;;;;;;;12.87;2.80;;;22.10;29.20;;;;;;11252065;26;20310;-71
2024/04/09 10:23:01;;;;;;;7.03;2.60;;;22.20;29.00;;;;;;11253346;26;20320;-72
2024/04/09 10:28:10;;;;;;;6.47;2.33;;;22.30;28.70;;;;;;11257767;26;20266;-71
2024/04/09 10:33:15;;;;;;;9.50;2.40;;;22.30;28.90;;;;;;11247624;26;20264;-71
2024/04/09 10:38:25;;;;;;;6.07;2.10;;;22.30;29.00;;;;;;11258707;26;20304;-71
2024/04/09 10:43:31;;;;;;;6.80;2.03;;;22.30;29.00;;;;;;11265983;26;20253;-71
2024/04/09 10:48:36;;;;;;;6.27;2.20;;;22.30;29.10;;;;;;11256254;26;20261;-72
2024/04/09 10:53:44;;;;;;;6.17;2.00;;;22.40;29.10;;;;;;11243103;26;20263;-72
2024/04/09 10:58:49;;;;;;;7.27;2.40;;;22.40;28.70;;;;;;11255142;26;20326;-71
2024/04/09 11:03:54;;;;;;;6.53;2.27;;;22.40;28.80;;;;;;11260467;26;20377;-71
2024/04/09 11:09:02;;;;;;;8.33;2.50;;;22.40;29.00;;;;;;11254528;26;20258;-72
2024/04/09 11:14:14;;;;;;;8.07;2.27;;;22.40;28.80;;;;;;11249084;26;20605;-71
2024/04/09 11:19:25;;;;;;;6.10;2.17;;;22.40;29.10;;;;;;11254157;26;20300;-71
2024/04/09 11:24:33;;;;;;;9.83;2.37;;;22.50;28.60;;;;;;11262542;26;20268;-72
2024/04/09 11:29:39;;;;;;;10.97;2.30;;;22.50;28.70;;;;;;11264780;26;20385;-71
2024/04/09 11:34:43;;;;;;;5.57;2.20;;;22.40;28.70;;;;;;11257264;26;20261;-71
2024/04/09 11:39:51;;;;;;;7.87;2.27;;;22.40;29.00;;;;;;11258644;26;20277;-71
2024/04/09 11:45:04;;;;;;;10.60;2.57;;;22.50;29.00;;;;;;11243734;26;20884;-71
2024/04/09 11:50:09;;;;;;;8.30;2.70;;;22.60;28.80;;;;;;11257990;26;20261;-71
2024/04/09 11:55:17;;;;;;;7.37;2.30;;;22.60;28.70;;;;;;11264840;26;20312;-70
2024/04/09 12:00:25;;;;;;;6.23;2.40;;;22.60;28.90;;;;;;11268989;26;20300;-71
2024/04/09 12:05:31;;;;;;;12.00;1.90;;;22.60;28.80;;;;;;11245058;26;20264;-71
2024/04/09 12:10:39;;;;;;;5.97;1.80;;;22.50;29.10;;;;;;11233323;26;20309;-71
2024/04/09 12:15:44;;;;;;;3.33;1.40;;;22.20;29.20;;;;;;11243412;26;21271;-71
2024/04/09 12:20:49;;;;;;;5.60;1.40;;;21.80;29.30;;;;;;11229887;26;20365;-71
2024/04/09 12:25:57;;;;;;;4.00;1.40;;;21.30;29.50;;;;;;11211966;26;20849;-71
2024/04/09 12:31:02;;;;;;;6.13;1.50;;;20.90;29.90;;;;;;11213069;26;20261;-71
2024/04/09 12:36:08;;;;;;;1.93;1.30;;;20.50;30.00;;;;;;11215340;26;20304;-71
2024/04/09 12:41:16;;;;;;;6.23;1.47;;;20.20;30.30;;;;;;11217808;26;20269;-71
2024/04/09 12:46:24;;;;;;;6.07;2.03;;;20.00;30.80;;;;;;11227104;26;20260;-71
2024/04/09 12:51:30;;;;;;;2.83;1.30;;;19.80;30.60;;;;;;11219159;26;20261;-71
2024/04/09 12:56:38;;;;;;;3.47;1.30;;;19.60;30.70;;;;;;11212127;26;20270;-71
2024/04/09 13:01:43;;;;;;;3.10;1.30;;;19.50;31.00;;;;;;11226345;26;20253;-70
2024/04/09 13:06:51;;;;;;;2.80;1.33;;;19.30;30.50;;;;;;11229448;26;20289;-71
2024/04/09 13:11:59;;;;;;;5.00;1.20;;;19.20;30.60;;;;;;11220063;26;20303;-71
2024/04/09 13:17:04;;;;;;;3.03;1.30;;;19.10;30.30;;;;;;11223325;26;20695;-70
2024/04/09 13:22:12;;;;;;;2.00;1.00;;;18.90;30.00;;;;;;11231251;26;20312;-70
2024/04/09 13:27:20;;;;;;;0.90;0.90;;;18.70;29.60;;;;;;11221243;26;20279;-70
2024/04/09 13:32:25;;;;;;;2.70;1.17;;;18.40;29.70;;;;;;11221253;26;20265;-70
2024/04/09 13:37:30;;;;;;;0.70;0.70;;;18.20;29.50;;;;;;11226985;26;20605;-70
2024/04/09 13:42:44;;;;;;;1.43;0.90;;;18.00;29.20;;;;;;11224820;26;20261;-70
2024/04/09 13:47:50;;;;;;;3.40;0.70;;;17.80;29.20;;;;;;11231713;26;20266;-71
2024/04/09 13:52:56;;;;;;;1.17;0.50;;;17.60;29.20;;;;;;11241015;26;20261;-71
2024/04/09 13:58:04;;;;;;;3.13;0.63;;;17.50;29.30;;;;;;11234905;26;20253;-71
2024/04/09 14:03:09;;;;;;;1.30;0.60;;;17.30;28.70;;;;;;11233415;26;20262;-71
2024/04/09 14:08:14;;;;;;;0.60;0.60;;;17.10;28.60;;;;;;11255988;26;20261;-70
2024/04/09 14:13:23;;;;;;;3.43;0.50;;;17.00;28.90;;;;;;11243325;26;20819;-70
2024/04/09 14:18:31;;;;;;;0.70;0.70;;;16.90;28.90;;;;;;11254855;26;20327;-70
2024/04/09 14:23:37;;;;;;;1.80;0.73;;;16.90;29.10;;;;;;11240478;26;20257;-71
2024/04/09 14:28:44;;;;;;;1.23;0.77;;;16.80;29.20;;;;;;11237231;26;20295;-72
2024/04/09 14:33:50;;;;;;;0.50;0.50;;;16.80;29.00;;;;;;11221031;26;20325;-72
2024/04/09 14:38:56;;;;;;;0.63;0.63;;;16.80;28.90;;;;;;11240124;26;20261;-71
2024/04/09 14:44:04;;;;;;;0.60;0.60;;;16.70;28.40;;;;;;11240894;26;20308;-72
2024/04/09 14:49:10;;;;;;;0.70;0.60;;;16.50;28.30;;;;;;11238195;26;20300;-71
2024/04/09 14:54:15;;;;;;;0.57;0.53;;;16.30;28.40;;;;;;11228880;26;20277;-70
2024/04/09 14:59:23;;;;;;;0.50;0.50;;;16.20;28.60;;;;;;11240789;26;20415;-70
2024/04/09 15:04:29;;;;;;;0.67;0.40;;;16.20;28.60;;;;;;11234404;26;20261;-71
2024/04/09 15:09:36;;;;;;;0.53;0.37;;;16.10;28.50;;;;;;11228837;26;20253;-71
2024/04/09 15:14:44;;;;;;;0.60;0.50;;;16.00;28.80;;;;;;11229931;26;20701;-71
2024/04/09 15:19:49;;;;;;;0.63;0.50;;;16.00;28.70;;;;;;11232395;26;20366;-72
2024/04/09 15:24:58;;;;;;;1.23;0.60;;;16.00;28.60;;;;;;11231626;26;20311;-71
2024/04/09 15:30:06;;;;;;;0.60;0.60;;;16.00;28.40;;;;;;11228879;26;20257;-71
2024/04/09 15:35:11;;;;;;;0.60;0.60;;;16.00;28.50;;;;;;11220327;26;20296;-70
2024/04/09 15:40:17;;;;;;;0.50;0.50;;;15.90;28.60;;;;;;11225075;26;20305;-71
2024/04/09 15:45:25;;;;;;;1.33;0.50;;;15.80;28.60;;;;;;11219868;26;20697;-71
2024/04/09 15:50:30;;;;;;;0.70;0.60;;;15.70;28.90;;;;;;11225700;26;20299;-71
2024/04/09 15:55:35;;;;;;;0.83;0.80;;;15.60;28.60;;;;;;11233558;26;20269;-71
2024/04/09 16:00:43;;;;;;;1.53;0.83;;;15.50;28.60;;;;;;11228208;26;20254;-69
2024/04/09 16:05:48;;;;;;;2.13;0.90;;;15.40;28.60;;;;;;11240225;26;20300;-71
2024/04/09 16:10:53;;;;;;;2.73;0.90;;;15.30;28.40;;;;;;11231364;26;20250;-71
2024/04/09 16:16:08;;;;;;;1.33;0.90;;;15.20;28.30;;;;;;11230751;26;20716;-71
2024/04/09 16:21:13;;;;;;;1.33;0.70;;;15.10;28.40;;;;;;11226061;26;20296;-71
2024/04/09 16:26:18;;;;;;;1.30;1.23;;;15.00;28.50;;;;;;11211871;26;20291;-71
2024/04/09 16:31:26;;;;;;;3.00;1.93;;;15.00;28.50;;;;;;11207460;26;20871;-71
2024/04/09 16:36:32;;;;;;;2.50;1.83;;;15.00;28.70;;;;;;11227819;26;20309;-71
2024/04/09 16:41:36;;;;;;;1.60;1.00;;;14.90;28.60;;;;;;11230259;26;20263;-71
2024/04/09 16:46:44;;;;;;;1.10;0.70;;;14.90;28.60;;;;;;11223789;26;20255;-72
2024/04/09 16:51:49;;;;;;;1.77;0.50;;;14.80;28.00;;;;;;11229703;26;20765;-71
2024/04/09 16:56:54;;;;;;;1.10;0.80;;;14.70;28.20;;;;;;11220228;26;20261;-71
2024/04/09 17:02:02;;;;;;;1.10;0.70;;;14.50;28.30;;;;;;11219410;26;22035;-72
2024/04/09 17:07:07;;;;;;;1.47;0.80;;;14.30;28.50;;;;;;11229981;26;20265;-71
2024/04/09 17:12:12;;;;;;;2.30;0.80;;;14.20;28.60;;;;;;11232738;26;20258;-71
2024/04/09 17:17:20;;;;;;;1.20;0.70;;;14.00;28.60;;;;;;11234606;26;20261;-71
2024/04/09 17:22:26;;;;;;;1.17;0.70;;;13.90;29.00;;;;;;11251626;26;20303;-72
2024/04/09 17:27:32;;;;;;;1.27;0.90;;;13.80;29.00;;;;;;11248715;26;20252;-71
2024/04/09 17:32:40;;;;;;;2.33;1.00;;;13.70;29.20;;;;;;11241416;26;20253;-71
2024/04/09 17:37:45;;;;;;;0.80;0.70;;;13.60;29.50;;;;;;11236048;26;20267;-72
2024/04/09 17:42:53;;;;;;;1.43;0.93;;;13.50;29.50;;;;;;11228134;26;20558;-71
2024/04/09 17:48:01;;;;;;;2.40;0.80;;;13.40;29.50;;;;;;11237462;26;20823;-71
2024/04/09 17:53:07;;;;;;;1.33;0.80;;;13.30;30.00;;;;;;11238708;26;20391;-71
2024/04/09 17:58:12;;;;;;;1.53;0.80;;;13.20;30.00;;;;;;11230209;26;20375;-71
2024/04/09 18:03:21;;;;;;;1.67;1.00;;;13.20;30.90;;;;;;11253356;26;20304;-71
2024/04/09 18:08:27;;;;;;;1.30;0.93;;;13.00;30.60;;;;;;11244697;26;20338;-71
2024/04/09 18:13:33;;;;;;;1.17;0.90;;;12.90;31.00;;;;;;11240136;26;20645;-71
2024/04/09 18:18:41;;;;;;;1.57;0.90;;;12.80;30.60;;;;;;11253466;26;20265;-71
2024/04/09 18:23:50;;;;;;;1.53;0.90;;;12.70;31.20;;;;;;11242306;26;20610;-71
2024/04/09 18:28:55;;;;;;;1.77;0.77;;;12.60;31.20;;;;;;11239782;26;20293;-71
2024/04/09 18:34:03;;;;;;;0.90;0.70;;;12.60;30.80;;;;;;11220338;26;20265;-70
2024/04/09 18:39:10;;;;;;;2.47;1.13;;;12.60;31.70;;;;;;11227986;26;20261;-70
2024/04/09 18:44:17;;;;;;;1.50;1.00;;;12.50;31.60;;;;;;11227673;26;20372;-70
2024/04/09 18:49:25;;;;;;;1.40;0.90;;;12.40;31.50;;;;;;11240168;26;20254;-70
2024/04/09 18:54:30;;;;;;;1.20;0.97;;;12.30;32.50;;;;;;11230908;26;20257;-70
2024/04/09 18:59:35;;;;;;;1.47;0.90;;;12.30;32.30;;;;;;11240807;26;20253;-70
2024/04/09 19:04:43;;;;;;;1.17;0.60;;;12.20;32.30;;;;;;11230467;26;20260;-71
2024/04/09 19:09:48;;;;;;;0.80;0.80;;;12.30;33.20;;;;;;11241198;26;20969;-70
2024/04/09 19:14:53;;;;;;;1.27;0.70;;;12.30;32.30;;;;;;11234492;26;20296;-70
2024/04/09 19:20:00;;;;;;;1.30;0.80;;;12.40;32.40;;;;;;11234857;26;20261;-71
2024/04/09 19:25:06;;;;;;;1.30;0.80;;;12.30;33.10;;;;;;11235547;26;20300;-71
2024/04/09 19:30:13;;;;;;;2.60;0.93;;;12.30;32.70;;;;;;11224290;26;20261;-71
2024/04/09 19:35:21;;;;;;;1.37;0.83;;;12.20;32.70;;;;;;11210703;26;20265;-70
2024/04/09 19:40:26;;;;;;;1.60;1.00;;;12.10;33.30;;;;;;11224775;26;20253;-70
2024/04/09 19:45:31;;;;;;;1.20;0.80;;;12.10;32.40;;;;;;11221912;26;20266;-71
2024/04/09 19:50:39;;;;;;;1.50;0.80;;;12.20;32.50;;;;;;11209815;26;20263;-71
2024/04/09 19:55:45;;;;;;;1.20;0.83;;;12.20;33.10;;;;;;11224191;26;20298;-70
2024/04/09 20:00:50;;;;;;;0.77;0.77;;;12.20;32.80;;;;;;11211012;26;20292;-71
2024/04/09 20:05:58;;;;;;;1.37;0.80;;;12.10;32.70;;;;;;11208889;26;20257;-71
2024/04/09 20:11:05;;;;;;;1.20;0.77;;;12.10;33.60;;;;;;11223671;26;20253;-71
2024/04/09 20:16:10;;;;;;;1.07;0.83;;;12.10;33.00;;;;;;11207602;26;20261;-70
2024/04/09 20:21:17;;;;;;;1.07;0.73;;;12.00;33.00;;;;;;11224600;26;20253;-71
2024/04/09 20:26:23;;;;;;;0.80;0.70;;;12.00;34.10;;;;;;11235317;26;20523;-71
2024/04/09 20:31:28;;;;;;;2.00;1.10;;;11.90;33.40;;;;;;11231570;26;20258;-71
2024/04/09 20:36:36;;;;;;;3.50;2.10;;;11.70;33.70;;;;;;11232238;26;21222;-71
2024/04/09 20:41:42;;;;;;;1.80;1.00;;;11.70;34.60;;;;;;11234897;26;21082;-71
2024/04/09 20:46:47;;;;;;;1.00;0.83;;;11.50;34.10;;;;;;11228109;26;20254;-71
2024/04/09 20:51:55;;;;;;;0.93;0.83;;;11.50;34.30;;;;;;11228424;26;20309;-71
2024/04/09 20:57:00;;;;;;;1.87;0.93;;;11.40;35.30;;;;;;11234515;26;20285;-71
2024/04/09 21:02:05;;;;;;;2.30;1.20;;;11.40;35.00;;;;;;11245256;26;20272;-71
2024/04/09 21:07:13;;;;;;;1.30;1.17;;;11.40;34.60;;;;;;11237901;26;20253;-71
2024/04/09 21:12:18;;;;;;;1.30;1.10;;;11.30;35.60;;;;;;11251312;26;20261;-70
2024/04/09 21:17:24;;;;;;;1.67;0.93;;;11.30;34.80;;;;;;11255071;26;20652;-70
2024/04/09 21:22:31;;;;;;;0.83;0.83;;;11.30;35.00;;;;;;11241241;26;20659;-71
2024/04/09 21:27:38;;;;;;;1.30;1.00;;;11.20;35.90;;;;;;11247275;26;20258;-71
2024/04/09 21:32:45;;;;;;;0.83;0.80;;;11.30;35.20;;;;;;11233883;26;20261;-70
2024/04/09 21:37:53;;;;;;;2.57;0.90;;;11.20;35.20;;;;;;11250127;26;20262;-71
2024/04/09 21:42:58;;;;;;;1.17;0.80;;;11.20;36.40;;;;;;11244689;26;20358;-71
2024/04/09 21:48:03;;;;;;;1.00;0.90;;;11.20;35.90;;;;;;11243470;26;21056;-71
2024/04/09 21:53:11;;;;;;;1.10;0.90;;;11.20;35.70;;;;;;11243325;26;20257;-71
2024/04/09 21:58:16;;;;;;;1.17;1.00;;;11.10;36.70;;;;;;11246592;26;20371;-71
2024/04/09 22:03:21;;;;;;;1.20;1.10;;;11.10;35.80;;;;;;11239105;26;20754;-71
2024/04/09 22:08:29;;;;;;;1.20;1.00;;;11.10;35.80;;;;;;11239249;26;20265;-71
2024/04/09 22:13:34;;;;;;;0.90;0.90;;;11.20;36.80;;;;;;11253649;26;20260;-71
2024/04/09 22:18:39;;;;;;;1.30;0.90;;;11.20;36.10;;;;;;11252395;26;20257;-71
2024/04/09 22:23:47;;;;;;;1.73;1.00;;;11.10;35.90;;;;;;11255641;26;20258;-71
2024/04/09 22:28:52;;;;;;;1.03;0.83;;;11.10;36.90;;;;;;11243364;26;20258;-71
2024/04/09 22:33:57;;;;;;;1.73;1.00;;;11.10;36.20;;;;;;11243716;26;20651;-71
2024/04/09 22:39:05;;;;;;;2.00;0.90;;;11.10;36.20;;;;;;11242324;26;20321;-70
2024/04/09 22:44:10;;;;;;;1.07;1.03;;;11.20;37.40;;;;;;11252972;26;20416;-71
2024/04/09 22:49:15;;;;;;;1.03;0.93;;;11.10;36.20;;;;;;11273707;26;20256;-71
2024/04/09 22:54:23;;;;;;;1.00;0.90;;;11.20;36.40;;;;;;11253799;26;20250;-71
2024/04/09 22:59:28;;;;;;;1.70;0.97;;;11.10;37.40;;;;;;11257016;26;20671;-71
2024/04/09 23:04:33;;;;;;;1.30;0.80;;;11.00;36.60;;;;;;11257924;26;20257;-71
2024/04/09 23:09:43;;;;;;;1.80;1.00;;;11.00;36.80;;;;;;11256472;26;20299;-71
2024/04/09 23:14:49;;;;;;;2.17;0.90;;;11.00;37.90;;;;;;11245273;26;20308;-71
2024/04/09 23:19:55;;;;;;;1.13;0.80;;;10.90;36.90;;;;;;11250005;26;20304;-71
2024/04/09 23:25:04;;;;;;;1.00;1.00;;;10.90;36.90;;;;;;11251703;26;20311;-71
2024/04/09 23:30:10;;;;;;;1.33;1.10;;;10.90;37.90;;;;;;11249866;26;20292;-71
2024/04/09 23:35:16;;;;;;;1.23;1.10;;;10.90;37.40;;;;;;11251424;26;20305;-71
2024/04/09 23:40:24;;;;;;;1.10;1.10;;;10.90;37.30;;;;;;11253264;26;20345;-71
2024/04/09 23:45:30;;;;;;;0.93;0.93;;;11.00;38.00;;;;;;11253771;26;20300;-71
2024/04/09 23:50:36;;;;;;;1.30;1.20;;;11.00;37.00;;;;;;11250038;26;20253;-71
2024/04/09 23:55:43;;;;;;;1.37;1.30;;;11.10;37.00;;;;;;11259294;26;21136;-70
